createdAt,value
2017-11-28T00:01:10.402Z,63.90
2017-11-28T00:03:37.519Z,63.71
2017-11-28T00:06:04.279Z,64.26
2017-11-28T00:08:30.735Z,63.84
2017-11-28T00:10:57.862Z,64.43
2017-11-28T00:13:25.004Z,64.61
2017-11-28T00:15:51.354Z,64.95
2017-11-28T00:18:18.548Z,64.46
2017-11-28T00:20:44.930Z,64.58
2017-11-28T00:23:11.364Z,64.46
2017-11-28T00:25:37.732Z,64.34
2017-11-28T00:28:04.839Z,64.21
2017-11-28T00:30:31.225Z,64.34
2017-11-28T00:32:57.635Z,63.98
2017-11-28T00:35:24.059Z,63.65
2017-11-28T00:37:51.225Z,63.31
2017-11-28T00:40:17.645Z,63.39
2017-11-28T00:42:44.683Z,63.74
2017-11-28T00:45:11.809Z,63.61
2017-11-28T00:47:38.191Z,63.16
2017-11-28T00:50:04.560Z,62.78
2017-11-28T00:52:30.906Z,63.29
2017-11-28T00:54:57.339Z,63.22
2017-11-28T00:57:23.713Z,63.37
2017-11-28T00:59:50.048Z,63.27
2017-11-28T01:02:16.350Z,63.06
2017-11-28T01:04:42.680Z,62.79
2017-11-28T01:07:09.057Z,63.16
2017-11-28T01:09:35.403Z,62.70
2017-11-28T01:12:01.815Z,62.98
2017-11-28T01:14:28.150Z,63.12
2017-11-28T01:16:54.615Z,63.24
2017-11-28T01:19:20.980Z,63.09
2017-11-28T01:21:48.126Z,63.12
2017-11-28T01:24:14.500Z,63.16
2017-11-28T01:26:40.898Z,63.48
2017-11-28T01:29:08.042Z,63.52
2017-11-28T01:31:34.512Z,63.52
2017-11-28T01:34:00.967Z,63.33
2017-11-28T01:36:27.304Z,62.85
2017-11-28T01:38:53.798Z,63.79
2017-11-28T01:41:20.926Z,63.60
2017-11-28T01:43:47.285Z,62.98
2017-11-28T01:46:14.700Z,62.90
2017-11-28T01:48:41.253Z,63.36
2017-11-28T01:51:08.405Z,63.15
2017-11-28T01:53:35.593Z,63.16
2017-11-28T01:56:02.084Z,63.21
2017-11-28T01:58:28.586Z,62.97
2017-11-28T02:00:54.958Z,63.08
2017-11-28T02:03:23.781Z,63.21
2017-11-28T02:05:51.429Z,62.98
2017-11-28T02:08:21.113Z,63.09
2017-11-28T02:10:52.670Z,63.20
2017-11-28T02:13:28.748Z,63.23
2017-11-28T02:16:05.433Z,62.87
2017-11-28T02:18:43.100Z,63.69
2017-11-28T02:24:12.039Z,62.78
2017-11-28T02:44:30.430Z,61.65
2017-11-28T02:46:56.948Z,61.60
2017-11-28T02:52:38.423Z,61.74
2017-11-28T02:55:11.846Z,61.41
2017-11-28T03:02:00.741Z,61.41
2017-11-28T03:04:27.112Z,61.06
2017-11-28T03:06:54.297Z,61.52
2017-11-28T03:09:34.707Z,61.64
2017-11-28T03:12:03.938Z,61.88
2017-11-28T03:14:45.215Z,61.82
2017-11-28T03:17:12.573Z,61.74
2017-11-28T03:19:47.797Z,61.73
2017-11-28T03:22:25.438Z,61.70
2017-11-28T03:25:30.433Z,61.55
2017-11-28T03:28:19.506Z,62.41
2017-11-28T03:31:02.704Z,62.02
2017-11-28T03:33:29.160Z,62.31
2017-11-28T03:35:55.573Z,62.30
2017-11-28T03:38:22.019Z,61.80
2017-11-28T03:40:48.501Z,62.05
2017-11-28T03:43:15.609Z,62.66
2017-11-28T03:45:49.766Z,62.75
2017-11-28T03:48:17.025Z,62.39
2017-11-28T03:50:44.327Z,62.37
2017-11-28T03:53:10.867Z,62.46
2017-11-28T03:55:45.033Z,62.01
2017-11-28T03:58:22.334Z,61.91
2017-11-28T04:01:22.372Z,62.03
2017-11-28T04:04:05.334Z,62.10
2017-11-28T04:09:28.980Z,61.81
2017-11-28T04:12:12.819Z,61.93
2017-11-28T04:14:58.100Z,61.80
2017-11-28T04:17:32.131Z,61.72
2017-11-28T04:23:12.639Z,61.60
2017-11-28T04:25:52.397Z,61.60
2017-11-28T04:31:59.014Z,62.00
2017-11-28T04:34:39.518Z,61.88
2017-11-28T04:37:31.358Z,61.86
2017-11-28T04:40:06.997Z,61.85
2017-11-28T04:49:01.043Z,61.54
2017-11-28T04:54:33.534Z,61.46
2017-11-28T04:57:58.815Z,61.65
2017-11-28T05:00:59.154Z,61.28
2017-11-28T05:03:32.523Z,61.22
2017-11-28T05:06:11.124Z,61.30
2017-11-28T05:08:41.851Z,61.59
2017-11-28T05:11:31.076Z,61.75
2017-11-28T05:20:35.549Z,62.58
2017-11-28T05:30:56.614Z,64.28
2017-11-28T05:33:48.754Z,64.26
2017-11-28T05:36:47.352Z,64.79
2017-11-28T05:39:17.550Z,64.98
2017-11-28T05:42:00.578Z,65.09
2017-11-28T05:44:41.064Z,65.65
2017-11-28T05:47:14.178Z,65.42
2017-11-28T05:49:41.998Z,65.73
2017-11-28T05:52:13.723Z,65.97
2017-11-28T05:54:45.427Z,66.42
2017-11-28T05:57:18.504Z,66.45
2017-11-28T05:59:46.950Z,66.79
2017-11-28T06:02:16.465Z,67.48
2017-11-28T06:04:45.663Z,68.08
2017-11-28T06:07:13.656Z,67.79
2017-11-28T06:09:45.972Z,68.43
2017-11-28T06:12:15.462Z,68.48
2017-11-28T06:14:44.243Z,68.48
2017-11-28T06:17:18.402Z,68.74
2017-11-28T06:19:50.429Z,68.66
2017-11-28T06:22:21.506Z,68.59
2017-11-28T06:24:53.177Z,69.02
2017-11-28T06:27:20.376Z,68.89
2017-11-28T06:29:49.603Z,68.94
2017-11-28T06:32:17.013Z,68.73
2017-11-28T06:34:46.236Z,69.10
2017-11-28T06:37:12.975Z,69.21
2017-11-28T06:39:42.175Z,69.15
2017-11-28T06:42:22.473Z,68.97
2017-11-28T06:44:49.731Z,68.63
2017-11-28T06:47:23.620Z,69.16
2017-11-28T06:49:50.670Z,69.23
2017-11-28T06:52:29.316Z,69.42
2017-11-28T06:54:57.621Z,68.58
2017-11-28T06:57:26.402Z,69.34
2017-11-28T07:00:03.902Z,68.82
2017-11-28T07:02:44.055Z,69.47
2017-11-28T07:05:12.375Z,69.59
2017-11-28T07:07:56.264Z,69.37
2017-11-28T07:20:00.463Z,69.39
2017-11-28T07:25:50.717Z,70.15
2017-11-28T07:40:06.596Z,72.08
2017-11-28T07:46:00.402Z,72.21
2017-11-28T07:48:27.496Z,72.63
2017-11-28T07:50:54.993Z,72.54
2017-11-28T07:53:24.260Z,72.78
2017-11-28T08:14:07.628Z,72.31
2017-11-28T08:16:37.942Z,72.40
2017-11-28T08:24:51.163Z,72.28
2017-11-28T08:27:19.586Z,72.20
2017-11-28T08:29:48.647Z,72.07
2017-11-28T08:32:17.423Z,71.09
2017-11-28T08:34:46.432Z,70.75
2017-11-28T08:37:17.341Z,70.36
2017-11-28T08:39:48.677Z,70.03
2017-11-28T08:42:27.663Z,70.20
2017-11-28T08:45:00.113Z,69.98
2017-11-28T08:47:39.864Z,70.10
2017-11-28T08:50:13.428Z,69.61
2017-11-28T08:55:28.243Z,69.53
2017-11-28T09:19:06.055Z,66.32
2017-11-28T09:21:39.527Z,66.77
2017-11-28T09:24:09.111Z,68.05
2017-11-28T09:26:42.820Z,66.62
2017-11-28T09:29:13.168Z,67.25
2017-11-28T09:31:44.716Z,66.21
2017-11-28T09:36:56.064Z,68.06
2017-11-28T09:39:27.468Z,66.53
2017-11-28T09:41:58.367Z,66.70
2017-11-28T09:44:28.834Z,66.76
2017-11-28T09:46:58.228Z,66.85
2017-11-28T09:49:25.753Z,65.64
2017-11-28T09:51:59.339Z,65.14
2017-11-28T09:54:32.785Z,65.96
2017-11-28T09:59:42.698Z,65.87
2017-11-28T11:36:31.897Z,66.00
2017-11-28T11:54:40.704Z,66.28
2017-11-28T11:57:37.004Z,66.43
2017-11-28T12:40:41.195Z,69.12
2017-11-28T12:43:13.264Z,68.01
2017-11-28T12:45:41.969Z,67.81
2017-11-28T12:48:08.983Z,68.74
2017-11-28T12:50:36.535Z,67.52
2017-11-28T12:53:04.651Z,67.36
2017-11-28T12:55:32.489Z,66.30
2017-11-28T12:57:59.660Z,65.09
2017-11-28T13:00:27.562Z,65.49
2017-11-28T13:02:56.224Z,65.38
2017-11-28T13:05:23.241Z,63.69
2017-11-28T13:07:50.305Z,64.15
2017-11-28T13:10:18.111Z,64.85
2017-11-28T13:12:45.824Z,64.93
2017-11-28T13:15:13.013Z,64.17
2017-11-28T13:17:40.166Z,64.08
2017-11-28T13:20:08.420Z,64.00
2017-11-28T13:22:35.670Z,63.33
2017-11-28T13:25:03.629Z,63.54
2017-11-28T13:27:30.771Z,62.26
2017-11-28T13:29:58.329Z,62.28
2017-11-28T13:32:25.204Z,62.80
2017-11-28T13:34:53.870Z,63.00
2017-11-28T13:37:20.732Z,63.67
2017-11-28T13:39:47.762Z,63.83
2017-11-28T13:42:16.798Z,64.52
2017-11-28T13:44:43.792Z,64.08
2017-11-28T13:47:11.075Z,64.32
2017-11-28T13:49:38.013Z,63.73
2017-11-28T13:52:05.018Z,63.90
2017-11-28T13:54:32.958Z,64.25
2017-11-28T13:57:00.662Z,64.09
2017-11-28T13:59:27.937Z,65.07
2017-11-28T14:01:55.698Z,64.92
2017-11-28T14:04:23.810Z,63.98
2017-11-28T14:06:51.408Z,64.76
2017-11-28T14:09:18.242Z,65.15
2017-11-28T14:11:45.630Z,64.70
2017-11-28T14:14:14.053Z,63.94
2017-11-28T14:16:42.177Z,63.73
2017-11-28T14:19:09.138Z,63.95
2017-11-28T14:21:41.081Z,63.65
2017-11-28T14:24:13.810Z,64.28
2017-11-28T14:26:47.055Z,64.40
2017-11-28T14:29:14.618Z,63.89
2017-11-28T14:31:45.363Z,64.29
2017-11-28T14:34:12.090Z,63.70
2017-11-28T14:36:42.807Z,63.78
2017-11-28T14:39:10.512Z,63.97
2017-11-28T14:45:01.030Z,63.79
2017-11-28T14:47:28.658Z,64.07
2017-11-28T14:49:55.507Z,64.29
2017-11-28T14:52:22.286Z,63.57
2017-11-28T14:54:57.952Z,63.34
2017-11-28T15:05:52.664Z,63.95
2017-11-28T15:08:25.107Z,63.46
2017-11-28T15:10:58.524Z,63.05
2017-11-28T15:16:34.660Z,63.43
2017-11-28T15:19:10.876Z,63.35
2017-11-28T15:24:41.079Z,63.14
2017-11-28T15:27:08.270Z,62.75
2017-11-28T15:29:35.700Z,62.93
2017-11-28T15:32:02.168Z,62.82
2017-11-28T15:34:28.609Z,62.36
2017-11-28T15:36:55.029Z,62.51
2017-11-28T15:39:21.473Z,62.52
2017-11-28T15:41:52.954Z,62.62
2017-11-28T15:44:20.370Z,63.27
2017-11-28T15:46:46.895Z,63.88
2017-11-28T15:49:13.279Z,62.91
2017-11-28T15:51:39.616Z,62.66
2017-11-28T15:54:06.130Z,62.68
2017-11-28T15:56:32.941Z,62.04
2017-11-28T15:58:59.302Z,61.81
2017-11-28T16:01:26.516Z,61.85
2017-11-28T16:03:52.875Z,62.33
2017-11-28T16:06:22.139Z,62.42
2017-11-28T16:08:52.998Z,62.33
2017-11-28T16:11:19.844Z,62.62
2017-11-28T16:13:46.641Z,62.48
2017-11-28T16:16:13.451Z,62.46
2017-11-28T16:18:40.129Z,62.13
2017-11-28T16:21:06.908Z,62.15
2017-11-28T16:23:33.709Z,62.20
2017-11-28T16:26:02.140Z,62.14
2017-11-28T16:28:29.694Z,62.79
2017-11-28T16:30:59.792Z,63.01
2017-11-28T16:33:26.755Z,63.27
2017-11-28T16:35:53.729Z,63.03
2017-11-28T16:40:54.940Z,63.90
2017-11-28T16:43:22.636Z,64.11
2017-11-28T16:45:49.511Z,64.25
2017-11-28T16:48:16.381Z,64.57
2017-11-28T16:50:43.377Z,64.21
2017-11-28T16:53:18.088Z,63.95
2017-11-28T16:55:44.982Z,64.46
2017-11-28T16:58:12.810Z,64.52
2017-11-28T17:00:39.863Z,64.65
2017-11-28T17:03:06.597Z,64.39
2017-11-28T17:05:34.684Z,64.20
2017-11-28T17:08:10.386Z,64.24
2017-11-28T17:10:37.310Z,64.00
2017-11-28T17:13:05.973Z,63.52
2017-11-28T17:15:32.850Z,63.63
2017-11-28T17:17:59.846Z,63.64
2017-11-28T17:20:26.638Z,63.22
2017-11-28T17:22:53.751Z,63.16
2017-11-28T17:25:20.749Z,63.54
2017-11-28T17:27:48.011Z,63.71
2017-11-28T17:30:15.400Z,64.32
2017-11-28T17:32:42.109Z,64.87
2017-11-28T17:35:08.850Z,65.67
2017-11-28T17:37:35.713Z,64.95
2017-11-28T17:40:03.278Z,64.64
2017-11-28T17:42:30.136Z,63.98
2017-11-28T17:44:57.995Z,64.54
2017-11-28T17:47:24.737Z,64.64
2017-11-28T17:49:51.629Z,64.68
2017-11-28T17:52:18.747Z,64.72
2017-11-28T17:54:48.129Z,64.68
2017-11-28T17:57:15.918Z,64.41
2017-11-28T17:59:44.188Z,64.81
2017-11-28T18:02:11.649Z,64.54
2017-11-28T18:04:39.408Z,64.36
2017-11-28T18:07:10.167Z,64.54
2017-11-28T18:09:38.208Z,64.25
2017-11-28T18:12:07.711Z,64.69
2017-11-28T18:14:34.454Z,65.03
2017-11-28T18:17:01.320Z,64.88
2017-11-28T18:19:28.750Z,65.14
2017-11-28T18:21:55.603Z,65.50
2017-11-28T18:24:22.778Z,65.88
2017-11-28T18:26:49.809Z,65.50
2017-11-28T18:29:24.473Z,66.01
2017-11-28T18:31:56.725Z,66.17
2017-11-28T18:34:24.196Z,66.12
2017-11-28T18:36:51.239Z,66.40
2017-11-28T18:39:18.211Z,66.29
2017-11-28T18:41:59.200Z,66.56
2017-11-28T18:44:26.228Z,66.71
2017-11-28T18:46:53.180Z,67.15
2017-11-28T18:49:31.464Z,67.12
2017-11-28T18:51:59.493Z,67.58
2017-11-28T18:54:26.314Z,67.81
2017-11-28T18:56:53.467Z,67.70
2017-11-28T18:59:21.254Z,68.09
2017-11-28T19:01:48.277Z,68.14
2017-11-28T19:04:15.355Z,67.80
2017-11-28T19:06:43.007Z,67.04
2017-11-28T19:09:09.930Z,66.98
2017-11-28T19:11:36.647Z,68.15
2017-11-28T19:14:03.605Z,68.00
2017-11-28T19:16:30.908Z,67.41
2017-11-28T19:21:31.327Z,67.39
2017-11-28T19:23:59.194Z,66.94
2017-11-28T19:26:26.423Z,67.73
2017-11-28T19:28:53.324Z,68.01
2017-11-28T19:31:22.115Z,67.71
2017-11-28T19:33:50.030Z,67.85
2017-11-28T19:36:21.012Z,68.45
2017-11-28T19:38:48.552Z,69.21
2017-11-28T19:41:17.863Z,69.69
2017-11-28T19:43:44.703Z,70.28
2017-11-28T19:46:16.780Z,70.79
2017-11-28T19:48:43.621Z,70.79
2017-11-28T19:51:11.505Z,70.63
2017-11-28T19:53:38.568Z,70.83
2017-11-28T19:56:06.702Z,70.48
2017-11-28T19:58:35.278Z,70.71
2017-11-28T20:01:07.693Z,71.13
2017-11-28T20:03:36.972Z,71.11
2017-11-28T20:06:04.887Z,71.43
2017-11-28T20:08:31.764Z,71.46
2017-11-28T20:10:59.778Z,71.36
2017-11-28T20:13:27.376Z,71.58
2017-11-28T20:15:54.020Z,71.65
2017-11-28T20:18:21.026Z,71.70
2017-11-28T20:20:47.946Z,72.16
2017-11-28T20:23:15.937Z,72.55
2017-11-28T20:25:48.487Z,72.70
2017-11-28T20:28:16.503Z,72.95
2017-11-28T20:30:57.788Z,73.29
2017-11-28T20:33:27.192Z,73.61
2017-11-28T20:35:57.429Z,73.87
2017-11-28T20:40:58.036Z,73.87
2017-11-28T20:43:29.350Z,74.00
2017-11-28T20:45:57.895Z,74.11
2017-11-28T20:48:25.710Z,74.33
2017-11-28T20:51:06.072Z,74.65
2017-11-28T20:53:36.324Z,75.01
2017-11-28T20:56:04.768Z,75.22
2017-11-28T20:58:32.186Z,75.45
2017-11-28T21:01:02.464Z,75.49
2017-11-28T21:03:31.040Z,74.40
2017-11-28T21:06:00.235Z,73.86
2017-11-28T21:08:28.258Z,73.76
2017-11-28T21:10:55.043Z,73.59
2017-11-28T21:13:23.734Z,73.06
2017-11-28T21:15:50.940Z,72.81
2017-11-28T21:18:22.301Z,73.00
2017-11-28T21:20:53.292Z,73.01
2017-11-28T21:23:21.204Z,72.76
2017-11-28T21:25:51.299Z,73.06
2017-11-28T21:28:19.536Z,72.87
2017-11-28T21:30:55.527Z,72.77
2017-11-28T21:33:23.909Z,72.39
2017-11-28T21:35:50.836Z,72.18
2017-11-28T21:38:21.337Z,71.77
2017-11-28T21:40:48.060Z,71.42
2017-11-28T21:43:16.045Z,71.10
2017-11-28T21:45:43.269Z,70.52
2017-11-28T21:48:10.594Z,70.32
2017-11-28T21:50:37.376Z,70.21
2017-11-28T21:53:05.275Z,70.09
2017-11-28T21:55:32.303Z,69.77
2017-11-28T21:57:59.123Z,69.72
2017-11-28T22:00:25.812Z,69.71
2017-11-28T22:02:53.024Z,70.10
2017-11-28T22:05:20.427Z,70.63
2017-11-28T22:07:49.160Z,70.74
2017-11-28T22:12:58.073Z,70.32
2017-11-28T22:15:24.969Z,69.78
2017-11-28T22:17:51.712Z,69.44
2017-11-28T22:20:19.905Z,69.50
2017-11-28T22:22:47.694Z,69.91
2017-11-28T22:25:15.900Z,69.63
2017-11-28T22:27:43.721Z,69.23
2017-11-28T22:30:12.087Z,69.46
2017-11-28T22:32:42.973Z,69.49
2017-11-28T22:35:10.995Z,69.49
2017-11-28T22:37:40.553Z,70.33
2017-11-28T22:40:07.250Z,70.00
2017-11-28T22:42:35.685Z,70.08
2017-11-28T22:45:03.945Z,70.10
2017-11-28T22:47:31.371Z,70.34
2017-11-28T22:50:00.127Z,70.50
2017-11-28T22:52:28.363Z,69.97
2017-11-28T22:54:55.292Z,70.43
2017-11-28T22:57:23.242Z,70.39
2017-11-28T22:59:50.439Z,70.32
2017-11-28T23:02:19.590Z,70.65
2017-11-28T23:04:48.135Z,70.05
2017-11-28T23:07:15.962Z,69.81
2017-11-28T23:09:43.270Z,69.34
2017-11-28T23:12:10.455Z,69.19
2017-11-28T23:14:49.610Z,69.06
2017-11-28T23:17:17.749Z,68.70
2017-11-28T23:19:44.637Z,68.40
2017-11-28T23:22:11.329Z,68.29
2017-11-28T23:24:38.241Z,68.10
2017-11-28T23:27:07.182Z,68.07
2017-11-28T23:29:34.200Z,67.99
2017-11-28T23:32:01.163Z,67.68
2017-11-28T23:34:28.208Z,67.74
2017-11-28T23:36:55.459Z,67.86
2017-11-28T23:39:22.282Z,67.82
2017-11-28T23:41:49.103Z,67.91
2017-11-28T23:44:15.864Z,67.78
2017-11-28T23:46:42.603Z,67.89
2017-11-28T23:49:10.138Z,67.93
2017-11-28T23:51:36.799Z,68.08
2017-11-28T23:54:03.481Z,68.14
2017-11-28T23:56:30.236Z,68.50
2017-11-28T23:58:57.781Z,68.93
